Time;durP1;ratioP1;P1;durP2;ratioP2;P2;SDS_P1;SDS_P2;PMS_P1;PMS_P2;Temp;Humidity;BMP_temperature;BMP_pressure;BME280_temperature;BME280_humidity;BME280_pressure;Samples;Min_cycle;Max_cycle;Signal;HPM_P1;HPM_P2
2022/05/04 00:01:19;;;;;;;10.23;3.78;;;;;;;11.64;56.03;101872.72;5115491;28;20053;-62
2022/05/04 00:03:45;;;;;;;10.60;4.43;;;;;;;11.63;56.30;101878.88;5115354;28;20114;-62
2022/05/04 00:06:10;;;;;;;9.40;4.10;;;;;;;11.62;56.53;101879.75;5115149;28;20020;-62
2022/05/04 00:08:37;;;;;;;9.90;3.70;;;;;;;11.59;56.23;101872.63;5115450;28;20027;-62
2022/05/04 00:11:04;;;;;;;10.50;3.92;;;;;;;11.68;55.92;101872.84;5115402;28;20076;-62
2022/05/04 00:13:31;;;;;;;11.90;3.80;;;;;;;11.65;56.11;101869.22;5115166;28;20488;-62
2022/05/04 00:15:57;;;;;;;9.70;4.03;;;;;;;11.54;56.21;101885.75;5115207;28;20023;-62
2022/05/04 00:18:22;;;;;;;13.60;4.47;;;;;;;11.52;56.49;101884.84;5115104;28;20019;-62
2022/05/04 00:20:47;;;;;;;13.00;4.20;;;;;;;11.56;56.45;101876.94;5114991;28;20027;-62
2022/05/04 00:23:13;;;;;;;11.75;3.70;;;;;;;11.52;56.46;101879.56;5114867;28;20045;-62
2022/05/04 00:25:38;;;;;;;10.93;4.10;;;;;;;11.48;56.60;101884.75;5114995;28;20047;-62
2022/05/04 00:28:04;;;;;;;10.70;4.10;;;;;;;11.36;56.62;101880.03;5114850;28;20036;-62
2022/05/04 00:30:30;;;;;;;12.55;4.13;;;;;;;11.45;56.95;101877.59;5114813;28;20028;-62
2022/05/04 00:32:56;;;;;;;12.60;4.05;;;;;;;11.40;57.37;101878.38;5096487;28;20457;-62
2022/05/04 00:35:21;;;;;;;9.20;4.05;;;;;;;11.44;56.97;101882.88;5114740;28;20099;-62
2022/05/04 00:37:47;;;;;;;13.38;4.47;;;;;;;11.41;57.03;101877.50;5114530;28;20089;-62
2022/05/04 00:40:12;;;;;;;9.27;4.20;;;;;;;11.39;57.29;101882.78;5114490;28;20135;-62
2022/05/04 00:42:38;;;;;;;9.90;4.47;;;;;;;11.43;57.66;101883.72;5114622;28;20107;-62
2022/05/04 00:45:04;;;;;;;12.52;3.92;;;;;;;11.40;57.57;101883.66;5096495;28;20061;-62
2022/05/04 00:47:30;;;;;;;12.40;4.25;;;;;;;11.37;57.91;101876.53;5114329;28;20034;-62
2022/05/04 00:49:56;;;;;;;9.38;4.30;;;;;;;11.52;57.34;101868.97;5114403;28;20015;-62
2022/05/04 00:52:22;;;;;;;10.90;4.07;;;;;;;11.49;57.48;101874.19;5114307;28;20055;-62
2022/05/04 00:54:52;;;;;;;10.75;3.72;;;;;;;11.41;57.17;101873.09;5114244;28;20107;-62
2022/05/04 01:00:05;;;;;;;10.60;3.95;;;;;;;11.53;57.73;101865.44;5114244;28;20400;-62
2022/05/04 01:02:31;;;;;;;11.70;4.00;;;;;;;11.56;56.98;101869.00;5114157;28;20023;-62
2022/05/04 01:04:57;;;;;;;7.95;3.75;;;;;;;11.62;57.08;101867.41;5113926;28;20039;-62
2022/05/04 01:07:23;;;;;;;8.25;3.88;;;;;;;11.66;56.88;101863.97;5114040;28;20460;-62
2022/05/04 01:09:49;;;;;;;15.82;3.70;;;;;;;11.70;57.20;101857.88;5114092;28;20468;-62
2022/05/04 01:12:14;;;;;;;12.05;4.13;;;;;;;11.66;56.77;101863.09;5114090;28;20028;-62
2022/05/04 01:14:39;;;;;;;11.07;3.55;;;;;;;11.65;56.97;101869.22;5114214;28;20046;-62
2022/05/04 01:17:06;;;;;;;9.38;3.55;;;;;;;11.60;56.92;101870.88;5113951;28;20055;-62
2022/05/04 01:19:31;;;;;;;10.73;3.65;;;;;;;11.51;57.04;101867.16;5114003;28;20024;-61
2022/05/04 01:21:57;;;;;;;11.52;3.72;;;;;;;11.56;57.44;101869.00;5113763;28;20039;-62
2022/05/04 01:24:22;;;;;;;11.05;3.67;;;;;;;11.53;57.57;101869.84;5113879;28;20087;-62
2022/05/04 01:26:48;;;;;;;12.55;4.18;;;;;;;11.57;57.13;101871.72;5113875;28;20027;-62
2022/05/04 01:29:14;;;;;;;11.32;3.45;;;;;;;11.58;57.20;101872.59;5113732;28;20051;-62
2022/05/04 01:31:39;;;;;;;9.65;3.72;;;;;;;11.63;57.07;101870.94;5113799;28;20024;-62
2022/05/04 01:34:05;;;;;;;9.93;3.40;;;;;;;11.59;56.58;101862.03;5113661;28;20035;-62
2022/05/04 01:36:30;;;;;;;11.93;3.80;;;;;;;11.58;56.35;101865.56;5113825;28;20076;-62
2022/05/04 01:38:55;;;;;;;12.13;3.60;;;;;;;11.56;57.11;101867.25;5113521;28;20032;-62
2022/05/04 01:44:05;;;;;;;10.27;3.47;;;;;;;11.57;57.04;101861.13;5113854;28;20092;-62
2022/05/04 01:46:30;;;;;;;11.55;3.90;;;;;;;11.59;57.17;101866.44;5113515;28;20423;-62
2022/05/04 01:48:56;;;;;;;9.43;3.50;;;;;;;11.58;56.64;101867.31;5113572;28;20027;-62
2022/05/04 01:51:21;;;;;;;10.13;3.50;;;;;;;11.55;56.25;101862.81;5113468;28;20024;-62
2022/05/04 01:53:46;;;;;;;10.00;3.58;;;;;;;11.44;56.83;101856.41;5113723;28;20028;-62
2022/05/04 01:56:12;;;;;;;10.73;3.55;;;;;;;11.42;57.12;101866.03;5113544;28;20019;-62
2022/05/04 01:58:37;;;;;;;9.80;3.45;;;;;;;11.46;57.12;101865.25;5113541;28;20098;-62
2022/05/04 02:01:03;;;;;;;10.73;3.53;;;;;;;11.47;56.63;101856.47;5113499;28;20059;-62
2022/05/04 02:03:30;;;;;;;11.82;3.70;;;;;;;11.45;57.00;101853.78;5113724;28;20048;-62
2022/05/04 02:05:55;;;;;;;14.55;3.50;;;;;;;11.50;56.45;101860.06;5113328;28;20039;-62
2022/05/04 02:08:21;;;;;;;16.02;4.03;;;;;;;11.45;56.60;101855.53;5113456;28;20031;-62
2022/05/04 02:10:46;;;;;;;8.73;3.50;;;;;;;11.48;56.50;101860.91;5114743;28;20027;-62
2022/05/04 02:13:12;;;;;;;13.18;3.70;;;;;;;11.46;56.96;101860.84;5117984;28;20106;-62
2022/05/04 02:15:37;;;;;;;13.35;3.78;;;;;;;11.47;56.49;101852.06;5117518;28;20098;-61
2022/05/04 02:18:02;;;;;;;11.38;3.40;;;;;;;11.47;56.93;101862.63;5117380;28;20106;-62
2022/05/04 02:20:28;;;;;;;11.30;3.50;;;;;;;11.49;56.64;101853.00;5117449;28;20053;-62
2022/05/04 02:22:53;;;;;;;10.30;3.20;;;;;;;11.43;56.50;101851.94;5117190;28;20099;-62
2022/05/04 02:25:18;;;;;;;10.93;3.33;;;;;;;11.36;57.16;101852.69;5117342;28;20019;-62
2022/05/04 02:27:44;;;;;;;10.65;3.72;;;;;;;11.32;56.66;101857.00;5117294;28;20053;-62
2022/05/04 02:30:10;;;;;;;11.98;3.60;;;;;;;11.33;56.95;101850.84;5117283;28;20028;-62
2022/05/04 02:32:35;;;;;;;8.95;3.63;;;;;;;11.33;56.87;101845.56;5117251;28;20028;-62
2022/05/04 02:37:57;;;;;;;12.25;3.10;;;;;;;11.40;56.91;101851.91;5117134;28;20034;-62
2022/05/04 02:40:25;;;;;;;11.77;3.60;;;;;;;11.47;56.04;101844.09;5116865;28;20108;-62
2022/05/04 02:42:50;;;;;;;12.13;3.50;;;;;;;11.50;56.74;101851.25;5116957;28;20461;-62
2022/05/04 02:45:15;;;;;;;12.65;3.83;;;;;;;11.47;56.67;101852.06;5116875;28;20098;-62
2022/05/04 02:47:41;;;;;;;11.75;3.75;;;;;;;11.48;56.42;101850.34;5116824;28;20019;-61
2022/05/04 02:50:07;;;;;;;12.00;3.70;;;;;;;11.36;56.70;101842.09;5116619;28;20055;-62
2022/05/04 02:52:32;;;;;;;10.20;3.38;;;;;;;11.35;56.84;101840.28;5116954;28;20026;-62
2022/05/04 02:54:58;;;;;;;14.30;3.30;;;;;;;11.35;56.74;101838.56;5116740;28;20102;-62
2022/05/04 02:57:23;;;;;;;10.82;3.63;;;;;;;11.26;56.63;101841.88;5116689;28;20035;-62
2022/05/04 02:59:49;;;;;;;13.35;3.58;;;;;;;11.28;56.66;101842.81;5116626;28;20024;-62
2022/05/04 03:02:29;;;;;;;9.85;3.67;;;;;;;11.25;56.56;101837.44;5116523;28;20024;-62
2022/05/04 03:05:03;;;;;;;9.60;3.60;;;;;;;11.24;57.16;101838.28;5116600;28;20070;-61
2022/05/04 03:07:29;;;;;;;13.18;3.42;;;;;;;11.20;56.78;101835.53;5116433;28;20473;-61
2022/05/04 03:09:55;;;;;;;9.70;3.67;;;;;;;11.17;57.44;101833.69;5116420;28;20023;-62
2022/05/04 03:12:21;;;;;;;17.30;3.70;;;;;;;11.19;56.77;101837.28;5116415;28;20024;-62
2022/05/04 03:14:47;;;;;;;13.85;3.58;;;;;;;11.35;56.53;101832.34;5116411;28;20076;-62
2022/05/04 03:17:12;;;;;;;11.65;3.72;;;;;;;11.33;56.34;101828.78;5116260;28;20112;-62
2022/05/04 03:19:37;;;;;;;11.82;3.50;;;;;;;11.26;56.82;101836.59;5116141;28;20023;-62
2022/05/04 03:22:04;;;;;;;11.45;3.55;;;;;;;11.26;56.59;101836.59;5116015;28;20465;-62
2022/05/04 03:24:29;;;;;;;8.65;3.70;;;;;;;11.25;56.38;101837.44;5116037;28;20463;-62
2022/05/04 03:26:54;;;;;;;12.68;3.65;;;;;;;11.22;56.51;101826.78;5115931;28;20084;-62
2022/05/04 03:29:20;;;;;;;10.05;3.35;;;;;;;11.21;56.59;101832.91;5116031;28;20047;-62
2022/05/04 03:31:45;;;;;;;12.82;3.45;;;;;;;11.26;56.82;101830.38;5115938;28;20054;-62
2022/05/04 03:34:10;;;;;;;13.23;3.55;;;;;;;11.26;56.73;101823.38;5097656;28;20100;-62
2022/05/04 03:36:36;;;;;;;11.68;3.70;;;;;;;11.21;57.00;101827.63;5115838;28;20032;-62
2022/05/04 03:39:06;;;;;;;17.33;4.07;;;;;;;11.16;56.79;101823.97;5115820;28;20028;-62
2022/05/04 03:41:31;;;;;;;15.13;4.25;;;;;;;11.03;57.50;101820.16;5115649;28;20054;-62
2022/05/04 03:43:57;;;;;;;9.65;3.60;;;;;;;11.08;57.32;101832.59;5115764;28;20435;-62
2022/05/04 03:46:27;;;;;;;9.77;3.90;;;;;;;11.04;57.62;101837.78;5115629;28;20496;-61
2022/05/04 03:48:58;;;;;;;9.63;3.85;;;;;;;11.07;57.62;101828.16;5115564;28;20086;-62
2022/05/04 03:51:24;;;;;;;11.02;3.95;;;;;;;11.02;57.73;101836.00;5115848;28;20022;-62
2022/05/04 03:53:51;;;;;;;14.48;3.72;;;;;;;11.06;57.60;101836.97;5115576;28;20052;-61
2022/05/04 03:56:17;;;;;;;12.43;3.80;;;;;;;11.07;57.40;101828.16;5115544;28;20540;-62
2022/05/04 03:58:43;;;;;;;11.45;3.80;;;;;;;11.07;57.44;101833.47;5115565;28;20102;-61
2022/05/04 04:01:09;;;;;;;15.23;3.97;;;;;;;11.02;57.64;101834.25;5115434;28;20020;-62
2022/05/04 04:03:34;;;;;;;16.77;3.92;;;;;;;10.99;57.87;101834.16;5115314;28;20111;-62
2022/05/04 04:06:00;;;;;;;13.13;3.97;;;;;;;11.01;57.56;101836.84;5115445;28;20429;-62
2022/05/04 04:08:26;;;;;;;17.15;4.05;;;;;;;11.06;57.71;101829.91;5114918;28;20027;-62
2022/05/04 04:10:52;;;;;;;10.13;3.92;;;;;;;11.07;57.65;101829.06;5115086;28;20110;-62
2022/05/04 04:13:18;;;;;;;9.55;3.70;;;;;;;11.10;57.18;101837.06;5114634;28;20099;-62
2022/05/04 04:15:43;;;;;;;10.95;3.83;;;;;;;11.06;57.75;101835.22;5114335;28;20088;-61
2022/05/04 04:18:09;;;;;;;11.23;3.70;;;;;;;11.00;57.98;101827.09;5114271;28;20069;-62
2022/05/04 04:23:19;;;;;;;10.93;3.97;;;;;;;11.01;57.76;101836.84;5114431;28;20029;-62
2022/05/04 04:25:45;;;;;;;10.50;4.10;;;;;;;10.94;57.63;101834.91;5114236;28;20031;-62
2022/05/04 04:28:10;;;;;;;12.15;4.07;;;;;;;10.91;57.85;101830.41;5114208;28;20111;-61
2022/05/04 04:30:39;;;;;;;9.50;4.07;;;;;;;10.82;57.84;101831.94;5114028;28;20023;-62
2022/05/04 04:33:06;;;;;;;14.95;3.92;;;;;;;10.81;57.83;101836.34;5113497;28;20039;-62
2022/05/04 04:35:32;;;;;;;12.95;3.88;;;;;;;10.78;58.32;101842.44;5113729;28;20028;-62
2022/05/04 04:37:59;;;;;;;10.30;3.60;;;;;;;10.88;58.25;101832.13;5114047;28;20107;-62
2022/05/04 04:40:25;;;;;;;12.15;3.60;;;;;;;10.99;57.59;101842.09;5113903;28;20048;-62
2022/05/04 04:42:50;;;;;;;7.63;3.58;;;;;;;10.99;57.55;101843.84;5095557;28;20073;-62
2022/05/04 04:45:17;;;;;;;11.98;3.88;;;;;;;10.90;58.03;101848.91;5113877;28;20522;-62
2022/05/04 04:47:44;;;;;;;15.98;4.20;;;;;;;10.80;58.35;101842.50;5113447;28;20031;-62
2022/05/04 04:50:10;;;;;;;9.40;4.00;;;;;;;10.70;58.63;101851.91;5113845;28;20099;-62
2022/05/04 04:52:35;;;;;;;11.70;4.15;;;;;;;10.67;58.58;101846.56;5113633;28;20020;-61
2022/05/04 04:55:00;;;;;;;13.13;4.13;;;;;;;10.70;58.84;101848.38;5113699;28;20483;-62
2022/05/04 04:57:26;;;;;;;17.85;4.13;;;;;;;10.72;58.57;101846.69;5113627;28;20089;-62
2022/05/04 04:59:51;;;;;;;12.95;4.03;;;;;;;10.71;58.44;101837.88;5113609;28;20479;-62
2022/05/04 05:02:16;;;;;;;9.75;3.97;;;;;;;10.69;58.77;101841.31;5113331;28;20032;-62
2022/05/04 05:04:42;;;;;;;10.55;4.30;;;;;;;10.63;58.51;101841.16;5113417;28;20027;-62
2022/05/04 05:07:07;;;;;;;15.20;4.10;;;;;;;10.66;58.62;101844.78;5113585;28;20413;-61
2022/05/04 05:09:34;;;;;;;11.32;4.35;;;;;;;10.66;58.78;101847.44;5113524;28;20026;-62
2022/05/04 05:11:59;;;;;;;17.80;4.55;;;;;;;10.62;59.09;101842.00;5095154;28;20439;-62
2022/05/04 05:17:08;;;;;;;14.20;4.60;;;;;;;10.71;58.93;101852.84;5113424;28;20085;-62
2022/05/04 05:19:33;;;;;;;12.93;4.47;;;;;;;10.80;59.03;101850.44;5113288;28;20476;-62
2022/05/04 05:21:59;;;;;;;11.30;4.53;;;;;;;10.93;58.47;101852.53;5113270;28;20016;-62
2022/05/04 05:24:24;;;;;;;16.00;4.82;;;;;;;10.97;58.35;101846.47;5113390;28;20110;-62
2022/05/04 05:26:50;;;;;;;11.52;4.85;;;;;;;11.02;57.68;101849.22;5114108;28;20022;-61
2022/05/04 05:29:15;;;;;;;12.45;5.35;;;;;;;11.00;57.88;101856.19;5113777;28;20498;-61
2022/05/04 05:31:41;;;;;;;13.75;4.45;;;;;;;10.91;58.49;101846.28;5113021;28;20028;-62
2022/05/04 05:34:06;;;;;;;14.15;4.28;;;;;;;11.07;58.30;101854.63;5113028;28;20024;-61
2022/05/04 05:36:31;;;;;;;14.77;4.20;;;;;;;11.11;58.01;101849.44;5113297;28;20054;-61
2022/05/04 05:38:57;;;;;;;14.77;4.60;;;;;;;11.24;57.43;101851.53;5113115;28;20058;-61
2022/05/04 05:41:23;;;;;;;14.07;4.53;;;;;;;11.38;57.59;101845.66;5113000;28;20040;-62
2022/05/04 05:43:52;;;;;;;12.52;4.25;;;;;;;11.56;57.02;101846.06;5094900;28;20479;-61
2022/05/04 05:46:18;;;;;;;12.98;4.20;;;;;;;11.71;55.69;101846.44;5113107;28;20032;-61
2022/05/04 05:48:43;;;;;;;12.13;4.32;;;;;;;11.85;55.59;101845.88;5113093;28;20491;-62
2022/05/04 05:51:08;;;;;;;10.15;4.10;;;;;;;11.91;55.53;101840.72;5112920;28;20096;-61
2022/05/04 05:53:34;;;;;;;12.35;4.20;;;;;;;12.11;55.37;101849.94;5113050;28;20066;-61
2022/05/04 05:55:59;;;;;;;16.52;3.97;;;;;;;12.18;54.54;101849.22;5113064;28;20097;-61
2022/05/04 05:58:25;;;;;;;15.50;3.80;;;;;;;12.35;54.19;101840.72;5113093;28;20031;-61
2022/05/04 06:00:51;;;;;;;14.88;4.07;;;;;;;12.45;53.31;101855.94;5113101;28;20034;-61
2022/05/04 06:03:17;;;;;;;14.90;4.45;;;;;;;12.65;53.12;101851.91;5112769;28;20020;-62
2022/05/04 06:05:42;;;;;;;13.45;3.90;;;;;;;12.77;52.77;101853.88;5112935;28;20422;-61
2022/05/04 06:08:09;;;;;;;15.02;3.78;;;;;;;12.91;52.57;101851.47;5113020;28;20023;-61
2022/05/04 06:10:35;;;;;;;12.90;3.97;;;;;;;13.09;52.07;101857.09;5112883;28;20460;-61
2022/05/04 06:13:01;;;;;;;16.30;4.18;;;;;;;13.22;51.06;101856.44;5112910;28;20032;-61
2022/05/04 06:15:26;;;;;;;13.60;4.20;;;;;;;13.40;51.01;101850.53;5112808;28;20545;-61
2022/05/04 06:17:52;;;;;;;14.52;4.22;;;;;;;13.48;50.76;101859.50;5112698;28;20469;-62
2022/05/04 06:20:17;;;;;;;12.68;4.00;;;;;;;13.51;49.89;101858.66;5113159;28;20504;-61
2022/05/04 06:22:42;;;;;;;10.90;4.00;;;;;;;13.58;50.15;101864.97;5112611;28;20031;-61
2022/05/04 06:25:08;;;;;;;10.07;3.58;;;;;;;13.76;49.51;101867.88;5112669;28;20022;-61
2022/05/04 06:27:33;;;;;;;10.45;3.70;;;;;;;13.86;48.98;101869.78;5112526;28;20020;-61
2022/05/04 06:35:27;;;;;;;15.60;4.28;;;;;;;14.40;47.04;101870.47;5112767;28;20039;-61
2022/05/04 06:37:53;;;;;;;17.10;4.13;;;;;;;14.56;46.41;101867.16;5112534;28;20027;-61
2022/05/04 06:40:20;;;;;;;14.93;4.22;;;;;;;14.57;46.07;101866.28;5112454;28;20043;-61
2022/05/04 06:42:46;;;;;;;11.43;3.85;;;;;;;14.68;45.83;101875.22;5112536;28;20031;-61
2022/05/04 06:45:11;;;;;;;10.63;3.90;;;;;;;14.66;45.84;101866.34;5112205;28;20453;-62
2022/05/04 06:47:36;;;;;;;8.93;3.63;;;;;;;14.70;45.32;101870.84;5112359;28;20126;-61
2022/05/04 06:50:03;;;;;;;11.75;3.88;;;;;;;14.79;45.88;101880.69;5112405;28;20024;-61
2022/05/04 06:52:33;;;;;;;9.48;4.03;;;;;;;14.82;45.08;101879.78;5112425;28;20019;-62
2022/05/04 06:54:59;;;;;;;12.73;4.40;;;;;;;14.81;45.31;101886.91;5112372;28;20496;-62
2022/05/04 06:57:24;;;;;;;14.07;4.57;;;;;;;14.78;45.21;101881.56;5114206;28;20027;-61
2022/05/04 06:59:49;;;;;;;13.88;3.90;;;;;;;14.75;45.82;101866.44;5115790;28;20020;-63
2022/05/04 07:02:15;;;;;;;13.32;4.03;;;;;;;14.94;44.79;101872.81;5115982;28;20024;-62
2022/05/04 07:04:41;;;;;;;13.05;4.10;;;;;;;15.15;44.90;101871.25;5115772;28;20370;-62
2022/05/04 07:07:06;;;;;;;12.75;4.13;;;;;;;15.40;44.89;101867.00;5115942;28;20085;-62
2022/05/04 07:09:33;;;;;;;13.23;3.80;;;;;;;15.71;43.32;101860.13;5116009;28;20042;-61
2022/05/04 07:11:59;;;;;;;11.35;4.10;;;;;;;15.81;42.57;101866.44;5115815;28;20024;-62
2022/05/04 07:14:24;;;;;;;15.18;4.13;;;;;;;15.69;42.98;101870.78;5115974;28;20035;-61
2022/05/04 07:16:50;;;;;;;16.25;4.35;;;;;;;15.77;42.70;101868.19;5115470;28;20028;-61
2022/05/04 07:19:16;;;;;;;17.52;4.13;;;;;;;15.96;43.18;101862.03;5115652;28;20023;-62
2022/05/04 07:21:42;;;;;;;12.40;4.60;;;;;;;16.09;41.98;101862.09;5115536;28;20054;-61
2022/05/04 07:24:07;;;;;;;13.07;4.03;;;;;;;16.37;40.77;101866.66;5115607;28;20020;-62
2022/05/04 07:26:33;;;;;;;14.68;3.92;;;;;;;16.58;40.67;101859.63;5115499;28;20428;-62
2022/05/04 07:28:59;;;;;;;11.65;4.20;;;;;;;16.72;40.07;101858.78;5115544;28;20108;-61
2022/05/04 07:31:24;;;;;;;12.07;4.22;;;;;;;16.82;40.44;101858.78;5115220;28;20442;-62
2022/05/04 07:33:50;;;;;;;11.30;4.30;;;;;;;17.02;39.22;101852.56;5116011;28;20023;-62
2022/05/04 07:36:15;;;;;;;11.90;4.10;;;;;;;17.38;39.08;101853.44;5115186;28;20491;-62
2022/05/04 07:38:40;;;;;;;11.85;4.40;;;;;;;17.45;38.82;101857.00;5115453;28;20028;-61
2022/05/04 07:43:50;;;;;;;8.38;4.30;;;;;;;17.93;37.64;101857.81;5115589;28;20400;-62
2022/05/04 07:46:15;;;;;;;14.52;4.70;;;;;;;17.97;37.52;101859.56;5114975;28;20019;-62
2022/05/04 07:48:40;;;;;;;12.00;4.28;;;;;;;18.09;37.18;101862.19;5115159;28;20392;-62
2022/05/04 07:51:06;;;;;;;16.02;4.38;;;;;;;18.16;36.62;101865.75;5115141;28;20024;-62
2022/05/04 07:53:31;;;;;;;13.05;4.40;;;;;;;18.40;36.24;101864.72;5115160;28;20026;-62
2022/05/04 07:55:56;;;;;;;13.40;4.18;;;;;;;18.69;36.02;101864.56;5115419;28;20019;-62
2022/05/04 07:58:22;;;;;;;11.10;4.55;;;;;;;18.76;35.66;101869.03;5115144;28;20031;-62
2022/05/04 08:06:15;;;;;;;9.93;4.38;;;;;;;19.02;34.88;101872.41;5114915;28;20038;-62
2022/05/04 08:08:40;;;;;;;14.02;4.88;;;;;;;19.06;34.90;101865.22;5113685;28;20028;-62
2022/05/04 08:11:05;;;;;;;12.50;4.78;;;;;;;19.20;34.80;101859.75;5115046;28;20511;-62
2022/05/04 08:13:32;;;;;;;11.63;4.70;;;;;;;19.49;34.08;101871.09;5114599;28;20422;-62
2022/05/04 08:15:58;;;;;;;10.43;4.78;;;;;;;19.51;34.32;101863.91;5114981;28;20070;-62
2022/05/04 08:18:25;;;;;;;13.02;4.68;;;;;;;19.55;33.99;101862.09;5114741;28;20047;-62
2022/05/04 08:20:51;;;;;;;11.35;5.35;;;;;;;19.70;33.41;101863.78;5114473;28;20399;-62
2022/05/04 08:23:16;;;;;;;9.63;5.18;;;;;;;19.72;33.50;101849.44;5114545;28;20114;-62
2022/05/04 08:25:42;;;;;;;9.18;4.70;;;;;;;19.86;33.81;101854.63;5114447;28;20024;-62
2022/05/04 08:28:07;;;;;;;10.73;4.97;;;;;;;20.16;33.51;101853.38;5114451;28;20065;-62
2022/05/04 08:30:32;;;;;;;10.63;5.40;;;;;;;20.40;32.77;101860.22;5114597;28;20038;-61
2022/05/04 08:32:58;;;;;;;12.40;5.90;;;;;;;20.68;31.76;101857.16;5114664;28;20410;-62
2022/05/04 08:35:23;;;;;;;14.30;5.50;;;;;;;20.98;32.15;101861.16;5114416;28;20024;-62
2022/05/04 08:37:49;;;;;;;14.00;6.05;;;;;;;20.91;31.92;101859.50;5115058;28;20047;-62
2022/05/04 08:40:15;;;;;;;13.40;5.15;;;;;;;20.85;31.63;101870.34;5115224;28;20401;-62
2022/05/04 08:42:43;;;;;;;9.73;5.38;;;;;;;21.10;30.98;101866.34;5115264;28;20031;-62
2022/05/04 08:45:14;;;;;;;13.25;5.50;;;;;;;21.18;30.41;101860.84;5115073;28;20027;-62
2022/05/04 08:47:41;;;;;;;18.17;5.65;;;;;;;21.22;30.30;101855.38;5113903;28;20425;-62
2022/05/04 08:50:16;;;;;;;12.73;5.43;;;;;;;21.35;31.64;101857.91;5114171;28;20469;-62
2022/05/04 08:52:52;;;;;;;12.48;5.40;;;;;;;21.42;30.96;101851.50;5114027;28;20108;-62
2022/05/04 08:55:17;;;;;;;13.65;5.30;;;;;;;21.52;30.59;101853.09;5113893;28;20027;-62
2022/05/04 08:57:42;;;;;;;11.32;5.70;;;;;;;21.48;30.25;101851.38;5113603;28;20032;-62
2022/05/04 09:00:10;;;;;;;12.07;5.57;;;;;;;21.64;30.98;101852.88;5113852;28;20430;-62
2022/05/04 09:02:36;;;;;;;11.98;5.80;;;;;;;21.65;31.15;101853.75;5113833;28;20032;-62
2022/05/04 09:05:18;;;;;;;11.80;5.68;;;;;;;21.99;30.05;101857.53;5113821;28;20437;-62
2022/05/04 09:07:44;;;;;;;11.52;5.55;;;;;;;21.93;30.43;101849.63;5113750;28;20026;-62
2022/05/04 09:10:21;;;;;;;11.35;5.90;;;;;;;22.05;29.86;101858.34;5113459;28;20020;-62
2022/05/04 09:12:48;;;;;;;15.52;6.07;;;;;;;22.12;28.81;101863.59;5113529;28;20049;-62
2022/05/04 09:15:18;;;;;;;16.42;6.03;;;;;;;22.19;28.97;101850.91;5113706;28;20372;-62
2022/05/04 09:17:44;;;;;;;13.63;5.80;;;;;;;22.60;29.24;101844.56;5113488;28;20027;-62
2022/05/04 09:22:54;;;;;;;11.13;5.53;;;;;;;22.65;27.90;101849.84;5113509;28;20135;-62
2022/05/04 09:25:20;;;;;;;12.90;5.95;;;;;;;22.73;27.75;101847.88;5113344;28;20098;-62
2022/05/04 09:27:46;;;;;;;11.38;5.75;;;;;;;22.77;27.95;101841.47;5113350;28;20052;-62
2022/05/04 09:30:12;;;;;;;11.88;5.53;;;;;;;23.04;28.05;101825.56;5113396;28;20027;-62
2022/05/04 09:32:41;;;;;;;10.00;5.32;;;;;;;23.09;28.10;101831.75;5113496;28;20333;-62
2022/05/04 09:35:14;;;;;;;11.27;5.63;;;;;;;23.19;29.23;101834.16;5113415;28;20027;-62
2022/05/04 09:45:55;;;;;;;13.45;5.88;;;;;;;23.40;26.90;101835.41;5113039;28;20101;-62
2022/05/04 09:48:29;;;;;;;11.20;5.22;;;;;;;23.52;27.53;101836.03;5113390;28;20031;-62
2022/05/04 09:51:00;;;;;;;12.93;5.82;;;;;;;23.50;26.95;101827.94;5113038;28;20080;-62
2022/05/04 09:53:27;;;;;;;11.77;5.57;;;;;;;23.37;27.30;101829.22;5113209;28;20468;-62
2022/05/04 09:55:55;;;;;;;14.00;5.63;;;;;;;23.47;26.94;101831.63;5113061;28;20468;-62
2022/05/04 09:58:23;;;;;;;11.02;5.82;;;;;;;23.48;26.56;101824.44;5113058;28;20019;-63
2022/05/04 10:00:48;;;;;;;16.00;5.55;;;;;;;23.67;26.56;101823.00;5112938;28;20032;-62
2022/05/04 10:03:14;;;;;;;11.38;6.00;;;;;;;23.78;26.64;101828.13;5112971;28;20026;-62
2022/05/04 10:05:40;;;;;;;10.55;5.78;;;;;;;23.69;26.82;101822.97;5112973;28;20024;-62
2022/05/04 10:08:05;;;;;;;13.50;6.15;;;;;;;23.70;27.89;101820.22;5112891;28;20054;-62
2022/05/04 10:10:32;;;;;;;9.70;5.55;;;;;;;23.85;26.39;101818.88;5113116;28;20468;-62
2022/05/04 10:12:58;;;;;;;11.35;5.68;;;;;;;24.08;25.94;101820.06;5112868;28;20027;-62
2022/05/04 10:15:25;;;;;;;12.05;5.80;;;;;;;24.22;25.39;101815.09;5112838;28;20065;-62
2022/05/04 10:17:59;;;;;;;16.00;6.20;;;;;;;24.30;25.38;101809.47;5113014;28;20467;-62
2022/05/04 10:20:49;;;;;;;11.93;5.72;;;;;;;24.48;25.47;101809.81;5113127;28;20039;-62
2022/05/04 10:23:21;;;;;;;13.23;5.72;;;;;;;24.64;25.80;101810.19;5112758;28;20073;-62
2022/05/04 10:25:47;;;;;;;;;;;;;;;25.01;26.40;101811.69;5113436;28;20032;-63
2022/05/04 10:28:14;;;;;;;12.13;5.88;;;;;;;24.77;26.24;101813.38;5113569;28;19926;-62
2022/05/04 10:31:12;;;;;;;11.65;5.80;;;;;;;24.82;26.58;101816.81;5113386;28;20099;-62
2022/05/04 10:33:38;;;;;;;10.65;6.00;;;;;;;24.95;24.94;101806.47;5116278;28;20051;-63
2022/05/04 10:36:15;;;;;;;10.80;5.85;;;;;;;25.08;25.04;101804.25;5117608;28;20027;-63
2022/05/04 10:38:45;;;;;;;11.27;5.78;;;;;;;25.28;24.58;101807.19;5116758;28;20027;-63
2022/05/04 10:41:12;;;;;;;14.32;6.18;;;;;;;25.42;23.86;101804.84;5116661;28;20047;-63
2022/05/04 10:43:47;;;;;;;11.50;6.05;;;;;;;25.48;24.39;101801.94;5116592;28;20024;-62
2022/05/04 10:46:16;;;;;;;12.27;6.28;;;;;;;25.39;24.67;101804.06;5116560;28;20480;-63
2022/05/04 10:48:56;;;;;;;10.75;6.22;;;;;;;25.41;25.60;101803.09;5116223;28;20096;-62
2022/05/04 10:51:27;;;;;;;10.93;6.63;;;;;;;25.12;24.97;101800.53;5116562;28;20107;-62
2022/05/04 10:53:58;;;;;;;11.02;6.13;;;;;;;25.45;24.97;101810.16;5116478;28;20333;-62
2022/05/04 10:56:25;;;;;;;11.43;6.50;;;;;;;25.40;24.10;101808.56;5116139;28;20028;-62
2022/05/04 10:58:51;;;;;;;11.70;6.38;;;;;;;25.34;23.88;101806.06;5116222;28;20507;-62
2022/05/04 11:01:16;;;;;;;13.75;6.95;;;;;;;25.25;24.33;101804.56;5115921;28;20024;-62
2022/05/04 11:03:49;;;;;;;11.88;6.53;;;;;;;25.37;24.46;101804.13;5116056;28;20115;-63
2022/05/04 11:06:26;;;;;;;12.10;6.80;;;;;;;25.68;24.97;101795.78;5115935;28;20480;-63
2022/05/04 11:08:52;;;;;;;11.77;6.97;;;;;;;25.81;23.89;101796.22;5116217;28;20127;-62
2022/05/04 11:11:21;;;;;;;11.43;6.80;;;;;;;25.71;23.44;101790.25;5115847;28;20374;-62
2022/05/04 11:13:46;;;;;;;12.27;6.72;;;;;;;25.54;23.81;101789.13;5115923;28;20161;-62
2022/05/04 11:16:12;;;;;;;13.05;6.82;;;;;;;26.02;23.86;101790.94;5115855;28;20434;-63
2022/05/04 11:18:38;;;;;;;10.55;6.80;;;;;;;26.00;23.11;101792.84;5115769;28;20024;-62
2022/05/04 11:21:10;;;;;;;11.55;6.25;;;;;;;26.10;23.70;101778.00;5115824;28;20088;-63
2022/05/04 11:23:37;;;;;;;12.20;5.97;;;;;;;26.43;24.15;101782.06;5115723;28;20035;-63
2022/05/04 11:26:03;;;;;;;13.30;6.30;;;;;;;26.54;22.90;101778.06;5115776;28;20024;-63
2022/05/04 11:28:28;;;;;;;13.13;6.30;;;;;;;26.48;23.99;101778.31;5115340;28;20035;-62
2022/05/04 11:30:54;;;;;;;11.43;6.32;;;;;;;26.82;23.13;101767.84;5115409;28;20030;-62
2022/05/04 11:33:20;;;;;;;8.88;5.88;;;;;;;26.97;25.03;101769.88;5115604;28;20376;-63
2022/05/04 11:35:56;;;;;;;12.85;6.47;;;;;;;27.00;23.35;101776.13;5115596;28;20548;-63
2022/05/04 11:38:23;;;;;;;10.48;6.50;;;;;;;26.76;22.78;101767.19;5115364;28;20102;-62
2022/05/04 11:40:49;;;;;;;15.93;6.70;;;;;;;26.51;22.71;101776.38;5115304;28;20060;-63
2022/05/04 11:43:34;;;;;;;12.75;7.13;;;;;;;26.61;22.38;101776.88;5114993;28;20031;-60
2022/05/04 11:46:09;;;;;;;13.18;6.68;;;;;;;26.34;22.83;101768.00;5115179;28;20055;-62
2022/05/04 11:48:38;;;;;;;13.50;6.63;;;;;;;26.36;23.79;101775.13;5115225;28;20473;-63
2022/05/04 11:51:07;;;;;;;14.48;7.03;;;;;;;26.37;23.67;101762.44;5115289;28;20020;-63
2022/05/04 11:53:34;;;;;;;14.50;6.90;;;;;;;26.46;22.58;101754.84;5115148;28;20115;-63
2022/05/04 11:56:00;;;;;;;13.35;7.18;;;;;;;26.58;22.39;101748.03;5114931;28;20028;-63